sensor_id;sensor_type;location;lat;lon;timestamp;P1;durP1;ratioP1;P2;durP2;ratioP2
49193;SDS011;35029;50.804;12.866;2024-01-25T00:00:16;20.08;;;4.03;;
49193;SDS011;35029;50.804;12.866;2024-01-25T00:02:42;22.08;;;5.03;;
49193;SDS011;35029;50.804;12.866;2024-01-25T00:05:08;13.88;;;3.78;;
49193;SDS011;35029;50.804;12.866;2024-01-25T00:07:33;16.77;;;4.35;;
49193;SDS011;35029;50.804;12.866;2024-01-25T00:09:59;23.20;;;5.10;;
49193;SDS011;35029;50.804;12.866;2024-01-25T00:12:25;19.15;;;4.63;;
49193;SDS011;35029;50.804;12.866;2024-01-25T00:14:51;18.98;;;3.80;;
49193;SDS011;35029;50.804;12.866;2024-01-25T00:17:17;24.08;;;4.85;;
49193;SDS011;35029;50.804;12.866;2024-01-25T00:19:43;18.85;;;3.80;;
49193;SDS011;35029;50.804;12.866;2024-01-25T00:22:09;19.48;;;4.47;;
49193;SDS011;35029;50.804;12.866;2024-01-25T00:24:34;18.33;;;4.47;;
49193;SDS011;35029;50.804;12.866;2024-01-25T00:27:01;22.25;;;4.40;;
49193;SDS011;35029;50.804;12.866;2024-01-25T00:29:29;22.35;;;4.50;;
49193;SDS011;35029;50.804;12.866;2024-01-25T00:31:55;18.20;;;4.47;;
49193;SDS011;35029;50.804;12.866;2024-01-25T00:34:21;17.05;;;4.80;;
49193;SDS011;35029;50.804;12.866;2024-01-25T00:36:47;16.33;;;4.68;;
49193;SDS011;35029;50.804;12.866;2024-01-25T00:39:13;25.70;;;4.97;;
49193;SDS011;35029;50.804;12.866;2024-01-25T00:41:39;23.25;;;4.70;;
49193;SDS011;35029;50.804;12.866;2024-01-25T00:44:06;13.30;;;3.75;;
49193;SDS011;35029;50.804;12.866;2024-01-25T00:46:32;21.30;;;4.55;;
49193;SDS011;35029;50.804;12.866;2024-01-25T00:48:58;18.42;;;5.00;;
49193;SDS011;35029;50.804;12.866;2024-01-25T00:51:23;20.80;;;4.70;;
49193;SDS011;35029;50.804;12.866;2024-01-25T00:53:49;20.80;;;4.10;;
49193;SDS011;35029;50.804;12.866;2024-01-25T00:56:15;21.38;;;5.53;;
49193;SDS011;35029;50.804;12.866;2024-01-25T00:58:41;20.60;;;4.35;;
49193;SDS011;35029;50.804;12.866;2024-01-25T01:01:06;17.30;;;4.50;;
49193;SDS011;35029;50.804;12.866;2024-01-25T01:03:33;18.23;;;4.72;;
49193;SDS011;35029;50.804;12.866;2024-01-25T01:05:58;24.88;;;5.53;;
49193;SDS011;35029;50.804;12.866;2024-01-25T01:08:24;20.77;;;4.40;;
49193;SDS011;35029;50.804;12.866;2024-01-25T01:10:51;23.17;;;5.25;;
49193;SDS011;35029;50.804;12.866;2024-01-25T01:13:16;22.33;;;5.13;;
49193;SDS011;35029;50.804;12.866;2024-01-25T01:15:42;15.43;;;3.88;;
49193;SDS011;35029;50.804;12.866;2024-01-25T01:18:08;16.92;;;3.53;;
49193;SDS011;35029;50.804;12.866;2024-01-25T01:20:33;20.05;;;4.68;;
49193;SDS011;35029;50.804;12.866;2024-01-25T01:22:59;23.98;;;4.88;;
49193;SDS011;35029;50.804;12.866;2024-01-25T01:25:24;19.38;;;4.10;;
49193;SDS011;35029;50.804;12.866;2024-01-25T01:27:50;21.85;;;4.30;;
49193;SDS011;35029;50.804;12.866;2024-01-25T01:30:15;21.48;;;4.00;;
49193;SDS011;35029;50.804;12.866;2024-01-25T01:32:41;24.65;;;5.13;;
49193;SDS011;35029;50.804;12.866;2024-01-25T01:35:06;23.27;;;3.60;;
49193;SDS011;35029;50.804;12.866;2024-01-25T01:37:32;17.77;;;4.38;;
49193;SDS011;35029;50.804;12.866;2024-01-25T01:39:57;17.80;;;3.72;;
49193;SDS011;35029;50.804;12.866;2024-01-25T01:42:24;18.38;;;3.95;;
49193;SDS011;35029;50.804;12.866;2024-01-25T01:44:50;19.52;;;3.92;;
49193;SDS011;35029;50.804;12.866;2024-01-25T01:47:17;17.02;;;4.78;;
49193;SDS011;35029;50.804;12.866;2024-01-25T01:49:42;19.70;;;3.75;;
49193;SDS011;35029;50.804;12.866;2024-01-25T01:52:08;18.90;;;3.95;;
49193;SDS011;35029;50.804;12.866;2024-01-25T01:54:35;21.73;;;4.82;;
49193;SDS011;35029;50.804;12.866;2024-01-25T01:57:01;22.10;;;4.45;;
49193;SDS011;35029;50.804;12.866;2024-01-25T01:59:27;21.15;;;4.25;;
49193;SDS011;35029;50.804;12.866;2024-01-25T02:01:54;23.05;;;4.72;;
49193;SDS011;35029;50.804;12.866;2024-01-25T02:04:20;15.95;;;4.10;;
49193;SDS011;35029;50.804;12.866;2024-01-25T02:06:45;18.48;;;3.88;;
49193;SDS011;35029;50.804;12.866;2024-01-25T02:09:11;22.08;;;5.03;;
49193;SDS011;35029;50.804;12.866;2024-01-25T02:11:37;20.30;;;4.25;;
49193;SDS011;35029;50.804;12.866;2024-01-25T02:14:03;26.15;;;4.88;;
49193;SDS011;35029;50.804;12.866;2024-01-25T02:16:29;18.88;;;3.95;;
49193;SDS011;35029;50.804;12.866;2024-01-25T02:18:54;22.08;;;4.88;;
49193;SDS011;35029;50.804;12.866;2024-01-25T02:21:22;16.02;;;4.45;;
49193;SDS011;35029;50.804;12.866;2024-01-25T02:23:47;23.95;;;4.15;;
49193;SDS011;35029;50.804;12.866;2024-01-25T02:26:13;19.90;;;4.30;;
49193;SDS011;35029;50.804;12.866;2024-01-25T02:28:39;26.45;;;5.05;;
49193;SDS011;35029;50.804;12.866;2024-01-25T02:31:04;18.52;;;4.25;;
49193;SDS011;35029;50.804;12.866;2024-01-25T02:33:30;23.60;;;5.13;;
49193;SDS011;35029;50.804;12.866;2024-01-25T02:35:55;23.85;;;4.72;;
49193;SDS011;35029;50.804;12.866;2024-01-25T02:38:21;26.73;;;6.50;;
49193;SDS011;35029;50.804;12.866;2024-01-25T02:40:47;26.77;;;4.57;;
49193;SDS011;35029;50.804;12.866;2024-01-25T02:43:12;28.30;;;5.35;;
49193;SDS011;35029;50.804;12.866;2024-01-25T02:45:38;24.45;;;5.00;;
49193;SDS011;35029;50.804;12.866;2024-01-25T02:48:03;21.45;;;4.45;;
49193;SDS011;35029;50.804;12.866;2024-01-25T02:50:29;24.15;;;6.15;;
49193;SDS011;35029;50.804;12.866;2024-01-25T02:52:55;21.13;;;4.70;;
49193;SDS011;35029;50.804;12.866;2024-01-25T02:55:20;26.58;;;5.70;;
49193;SDS011;35029;50.804;12.866;2024-01-25T02:57:46;21.30;;;5.88;;
49193;SDS011;35029;50.804;12.866;2024-01-25T03:00:11;24.60;;;4.63;;
49193;SDS011;35029;50.804;12.866;2024-01-25T03:02:37;29.67;;;5.53;;
49193;SDS011;35029;50.804;12.866;2024-01-25T03:05:03;19.58;;;4.82;;
49193;SDS011;35029;50.804;12.866;2024-01-25T03:07:29;20.35;;;4.53;;
49193;SDS011;35029;50.804;12.866;2024-01-25T03:09:54;26.17;;;5.32;;
49193;SDS011;35029;50.804;12.866;2024-01-25T03:12:20;21.02;;;5.07;;
49193;SDS011;35029;50.804;12.866;2024-01-25T03:14:50;22.40;;;5.30;;
49193;SDS011;35029;50.804;12.866;2024-01-25T03:17:16;25.27;;;4.78;;
49193;SDS011;35029;50.804;12.866;2024-01-25T03:19:41;24.40;;;5.15;;
49193;SDS011;35029;50.804;12.866;2024-01-25T03:22:07;20.92;;;5.28;;
49193;SDS011;35029;50.804;12.866;2024-01-25T03:24:32;20.27;;;4.70;;
49193;SDS011;35029;50.804;12.866;2024-01-25T03:26:58;21.73;;;5.25;;
49193;SDS011;35029;50.804;12.866;2024-01-25T03:29:23;19.90;;;4.75;;
49193;SDS011;35029;50.804;12.866;2024-01-25T03:31:49;27.33;;;5.07;;
49193;SDS011;35029;50.804;12.866;2024-01-25T03:34:15;31.42;;;5.38;;
49193;SDS011;35029;50.804;12.866;2024-01-25T03:36:41;16.90;;;4.95;;
49193;SDS011;35029;50.804;12.866;2024-01-25T03:39:06;29.35;;;5.53;;
49193;SDS011;35029;50.804;12.866;2024-01-25T03:41:32;18.77;;;4.10;;
49193;SDS011;35029;50.804;12.866;2024-01-25T03:43:58;27.25;;;5.95;;
49193;SDS011;35029;50.804;12.866;2024-01-25T03:46:23;27.02;;;5.28;;
49193;SDS011;35029;50.804;12.866;2024-01-25T03:48:49;21.75;;;5.20;;
49193;SDS011;35029;50.804;12.866;2024-01-25T03:51:14;29.60;;;5.57;;
49193;SDS011;35029;50.804;12.866;2024-01-25T03:53:41;25.92;;;5.65;;
49193;SDS011;35029;50.804;12.866;2024-01-25T03:56:13;27.08;;;5.97;;
49193;SDS011;35029;50.804;12.866;2024-01-25T03:58:42;30.17;;;5.88;;
49193;SDS011;35029;50.804;12.866;2024-01-25T04:01:09;31.95;;;6.35;;
49193;SDS011;35029;50.804;12.866;2024-01-25T04:03:36;26.95;;;5.38;;
49193;SDS011;35029;50.804;12.866;2024-01-25T04:06:01;23.75;;;5.03;;
49193;SDS011;35029;50.804;12.866;2024-01-25T04:08:27;23.98;;;5.25;;
49193;SDS011;35029;50.804;12.866;2024-01-25T04:10:52;26.48;;;5.40;;
49193;SDS011;35029;50.804;12.866;2024-01-25T04:13:18;27.25;;;6.43;;
49193;SDS011;35029;50.804;12.866;2024-01-25T04:15:43;24.92;;;5.47;;
49193;SDS011;35029;50.804;12.866;2024-01-25T04:18:09;30.70;;;6.50;;
49193;SDS011;35029;50.804;12.866;2024-01-25T04:20:46;25.55;;;6.25;;
49193;SDS011;35029;50.804;12.866;2024-01-25T04:23:12;30.55;;;6.75;;
49193;SDS011;35029;50.804;12.866;2024-01-25T04:25:37;30.00;;;5.53;;
49193;SDS011;35029;50.804;12.866;2024-01-25T04:28:03;34.58;;;6.65;;
49193;SDS011;35029;50.804;12.866;2024-01-25T04:30:29;17.25;;;5.18;;
49193;SDS011;35029;50.804;12.866;2024-01-25T04:32:56;26.77;;;4.47;;
49193;SDS011;35029;50.804;12.866;2024-01-25T04:35:21;29.70;;;5.72;;
49193;SDS011;35029;50.804;12.866;2024-01-25T04:37:47;21.70;;;4.88;;
49193;SDS011;35029;50.804;12.866;2024-01-25T04:40:12;25.13;;;5.85;;
49193;SDS011;35029;50.804;12.866;2024-01-25T04:42:38;22.17;;;5.70;;
49193;SDS011;35029;50.804;12.866;2024-01-25T04:45:04;31.23;;;7.03;;
49193;SDS011;35029;50.804;12.866;2024-01-25T04:47:31;26.23;;;5.85;;
49193;SDS011;35029;50.804;12.866;2024-01-25T04:49:56;25.98;;;5.85;;
49193;SDS011;35029;50.804;12.866;2024-01-25T04:52:21;26.65;;;4.85;;
49193;SDS011;35029;50.804;12.866;2024-01-25T04:54:47;25.55;;;6.68;;
49193;SDS011;35029;50.804;12.866;2024-01-25T04:57:12;31.55;;;6.00;;
49193;SDS011;35029;50.804;12.866;2024-01-25T04:59:38;29.85;;;5.47;;
49193;SDS011;35029;50.804;12.866;2024-01-25T05:02:05;17.73;;;4.57;;
49193;SDS011;35029;50.804;12.866;2024-01-25T05:04:34;25.73;;;5.22;;
49193;SDS011;35029;50.804;12.866;2024-01-25T05:07:00;25.50;;;5.60;;
49193;SDS011;35029;50.804;12.866;2024-01-25T05:09:26;23.58;;;4.97;;
49193;SDS011;35029;50.804;12.866;2024-01-25T05:11:51;26.73;;;6.10;;
49193;SDS011;35029;50.804;12.866;2024-01-25T05:14:17;26.02;;;5.18;;
49193;SDS011;35029;50.804;12.866;2024-01-25T05:16:42;28.02;;;6.05;;
49193;SDS011;35029;50.804;12.866;2024-01-25T05:19:08;26.45;;;4.82;;
49193;SDS011;35029;50.804;12.866;2024-01-25T05:21:33;24.48;;;5.70;;
49193;SDS011;35029;50.804;12.866;2024-01-25T05:24:01;32.72;;;6.50;;
49193;SDS011;35029;50.804;12.866;2024-01-25T05:26:26;25.10;;;5.57;;
49193;SDS011;35029;50.804;12.866;2024-01-25T05:28:52;22.58;;;4.60;;
49193;SDS011;35029;50.804;12.866;2024-01-25T05:31:18;30.23;;;6.10;;
49193;SDS011;35029;50.804;12.866;2024-01-25T05:33:43;24.48;;;5.40;;
49193;SDS011;35029;50.804;12.866;2024-01-25T05:36:08;28.73;;;5.25;;
49193;SDS011;35029;50.804;12.866;2024-01-25T05:38:35;37.45;;;6.18;;
49193;SDS011;35029;50.804;12.866;2024-01-25T05:41:00;21.35;;;6.15;;
49193;SDS011;35029;50.804;12.866;2024-01-25T05:43:26;29.45;;;5.57;;
49193;SDS011;35029;50.804;12.866;2024-01-25T05:45:54;23.88;;;5.47;;
49193;SDS011;35029;50.804;12.866;2024-01-25T05:48:19;32.38;;;4.97;;
49193;SDS011;35029;50.804;12.866;2024-01-25T05:50:45;31.25;;;6.13;;
49193;SDS011;35029;50.804;12.866;2024-01-25T05:53:10;33.35;;;5.55;;
49193;SDS011;35029;50.804;12.866;2024-01-25T05:55:36;23.70;;;4.63;;
49193;SDS011;35029;50.804;12.866;2024-01-25T05:58:01;26.65;;;5.65;;
49193;SDS011;35029;50.804;12.866;2024-01-25T06:00:27;27.05;;;4.90;;
49193;SDS011;35029;50.804;12.866;2024-01-25T06:02:56;24.15;;;5.22;;
49193;SDS011;35029;50.804;12.866;2024-01-25T06:05:24;27.20;;;5.18;;
49193;SDS011;35029;50.804;12.866;2024-01-25T06:07:50;22.27;;;4.50;;
49193;SDS011;35029;50.804;12.866;2024-01-25T06:10:16;23.75;;;5.45;;
49193;SDS011;35029;50.804;12.866;2024-01-25T06:12:41;24.05;;;5.07;;
49193;SDS011;35029;50.804;12.866;2024-01-25T06:15:07;16.73;;;4.70;;
49193;SDS011;35029;50.804;12.866;2024-01-25T06:17:33;27.20;;;5.85;;
49193;SDS011;35029;50.804;12.866;2024-01-25T06:19:58;27.25;;;6.22;;
49193;SDS011;35029;50.804;12.866;2024-01-25T06:22:24;24.88;;;4.68;;
49193;SDS011;35029;50.804;12.866;2024-01-25T06:24:52;28.55;;;5.65;;
49193;SDS011;35029;50.804;12.866;2024-01-25T06:27:18;23.45;;;4.80;;
49193;SDS011;35029;50.804;12.866;2024-01-25T06:29:43;18.33;;;4.38;;
49193;SDS011;35029;50.804;12.866;2024-01-25T06:32:09;25.45;;;5.10;;
49193;SDS011;35029;50.804;12.866;2024-01-25T06:34:35;35.85;;;6.05;;
49193;SDS011;35029;50.804;12.866;2024-01-25T06:37:00;23.40;;;5.50;;
49193;SDS011;35029;50.804;12.866;2024-01-25T06:39:26;22.83;;;4.38;;
49193;SDS011;35029;50.804;12.866;2024-01-25T06:41:53;23.77;;;5.05;;
49193;SDS011;35029;50.804;12.866;2024-01-25T06:44:19;21.30;;;4.53;;
49193;SDS011;35029;50.804;12.866;2024-01-25T06:46:45;22.13;;;4.75;;
49193;SDS011;35029;50.804;12.866;2024-01-25T06:49:11;25.08;;;5.00;;
49193;SDS011;35029;50.804;12.866;2024-01-25T06:51:36;21.15;;;4.70;;
49193;SDS011;35029;50.804;12.866;2024-01-25T06:54:02;23.42;;;5.30;;
49193;SDS011;35029;50.804;12.866;2024-01-25T06:56:28;18.38;;;4.38;;
49193;SDS011;35029;50.804;12.866;2024-01-25T06:58:53;25.35;;;4.88;;
49193;SDS011;35029;50.804;12.866;2024-01-25T07:01:22;16.83;;;4.20;;
49193;SDS011;35029;50.804;12.866;2024-01-25T07:03:48;20.48;;;4.28;;
49193;SDS011;35029;50.804;12.866;2024-01-25T07:06:17;20.10;;;3.88;;
49193;SDS011;35029;50.804;12.866;2024-01-25T07:08:43;20.38;;;4.65;;
49193;SDS011;35029;50.804;12.866;2024-01-25T07:11:10;25.83;;;4.95;;
49193;SDS011;35029;50.804;12.866;2024-01-25T07:13:35;20.48;;;4.07;;
49193;SDS011;35029;50.804;12.866;2024-01-25T07:16:01;24.35;;;4.85;;
49193;SDS011;35029;50.804;12.866;2024-01-25T07:18:27;17.05;;;4.40;;
49193;SDS011;35029;50.804;12.866;2024-01-25T07:20:53;21.17;;;4.18;;
49193;SDS011;35029;50.804;12.866;2024-01-25T07:23:23;25.00;;;3.53;;
49193;SDS011;35029;50.804;12.866;2024-01-25T07:25:48;21.50;;;4.35;;
49193;SDS011;35029;50.804;12.866;2024-01-25T07:28:14;13.82;;;3.55;;
49193;SDS011;35029;50.804;12.866;2024-01-25T07:30:39;18.00;;;4.38;;
49193;SDS011;35029;50.804;12.866;2024-01-25T07:33:05;18.48;;;4.75;;
49193;SDS011;35029;50.804;12.866;2024-01-25T07:35:31;25.75;;;4.85;;
49193;SDS011;35029;50.804;12.866;2024-01-25T07:37:57;17.83;;;4.38;;
49193;SDS011;35029;50.804;12.866;2024-01-25T07:40:23;23.55;;;4.45;;
49193;SDS011;35029;50.804;12.866;2024-01-25T07:42:49;22.25;;;4.22;;
49193;SDS011;35029;50.804;12.866;2024-01-25T07:45:15;19.70;;;4.10;;
49193;SDS011;35029;50.804;12.866;2024-01-25T07:47:41;21.50;;;4.72;;
49193;SDS011;35029;50.804;12.866;2024-01-25T07:50:07;20.23;;;4.35;;
49193;SDS011;35029;50.804;12.866;2024-01-25T07:52:33;18.80;;;3.58;;
49193;SDS011;35029;50.804;12.866;2024-01-25T07:55:00;16.02;;;4.07;;
49193;SDS011;35029;50.804;12.866;2024-01-25T07:57:28;17.17;;;4.22;;
49193;SDS011;35029;50.804;12.866;2024-01-25T07:59:54;16.52;;;4.03;;
49193;SDS011;35029;50.804;12.866;2024-01-25T08:02:20;21.42;;;4.78;;
49193;SDS011;35029;50.804;12.866;2024-01-25T08:04:45;17.38;;;3.85;;
49193;SDS011;35029;50.804;12.866;2024-01-25T08:07:11;22.67;;;3.97;;
49193;SDS011;35029;50.804;12.866;2024-01-25T08:09:36;14.98;;;4.13;;
49193;SDS011;35029;50.804;12.866;2024-01-25T08:12:02;26.95;;;4.22;;
49193;SDS011;35029;50.804;12.866;2024-01-25T08:14:28;16.08;;;3.50;;
49193;SDS011;35029;50.804;12.866;2024-01-25T08:16:53;17.08;;;4.18;;
49193;SDS011;35029;50.804;12.866;2024-01-25T08:19:22;19.48;;;3.65;;
49193;SDS011;35029;50.804;12.866;2024-01-25T08:21:48;13.98;;;4.10;;
49193;SDS011;35029;50.804;12.866;2024-01-25T08:24:14;17.83;;;3.55;;
49193;SDS011;35029;50.804;12.866;2024-01-25T08:26:40;14.38;;;2.78;;
49193;SDS011;35029;50.804;12.866;2024-01-25T08:29:05;18.13;;;4.15;;
49193;SDS011;35029;50.804;12.866;2024-01-25T08:31:32;18.30;;;3.92;;
49193;SDS011;35029;50.804;12.866;2024-01-25T08:33:57;15.10;;;3.00;;
49193;SDS011;35029;50.804;12.866;2024-01-25T08:36:23;19.42;;;3.85;;
49193;SDS011;35029;50.804;12.866;2024-01-25T08:38:49;18.92;;;3.75;;
49193;SDS011;35029;50.804;12.866;2024-01-25T08:41:15;17.27;;;3.20;;
49193;SDS011;35029;50.804;12.866;2024-01-25T08:43:41;12.13;;;3.10;;
49193;SDS011;35029;50.804;12.866;2024-01-25T08:46:07;16.13;;;3.90;;
49193;SDS011;35029;50.804;12.866;2024-01-25T08:48:33;13.05;;;2.50;;
49193;SDS011;35029;50.804;12.866;2024-01-25T08:50:59;17.33;;;3.38;;
49193;SDS011;35029;50.804;12.866;2024-01-25T08:53:25;16.92;;;3.33;;
49193;SDS011;35029;50.804;12.866;2024-01-25T08:55:54;17.50;;;3.90;;
49193;SDS011;35029;50.804;12.866;2024-01-25T08:58:20;20.67;;;3.50;;
49193;SDS011;35029;50.804;12.866;2024-01-25T09:00:46;17.23;;;3.42;;
49193;SDS011;35029;50.804;12.866;2024-01-25T09:03:11;17.30;;;3.53;;
49193;SDS011;35029;50.804;12.866;2024-01-25T09:05:37;20.65;;;3.92;;
49193;SDS011;35029;50.804;12.866;2024-01-25T09:08:06;18.77;;;3.50;;
49193;SDS011;35029;50.804;12.866;2024-01-25T09:10:32;17.05;;;2.90;;
49193;SDS011;35029;50.804;12.866;2024-01-25T09:12:57;20.08;;;3.90;;
49193;SDS011;35029;50.804;12.866;2024-01-25T09:15:23;15.85;;;3.15;;
49193;SDS011;35029;50.804;12.866;2024-01-25T09:17:48;16.05;;;3.10;;
49193;SDS011;35029;50.804;12.866;2024-01-25T09:20:14;15.18;;;3.40;;
49193;SDS011;35029;50.804;12.866;2024-01-25T09:22:40;13.30;;;2.67;;
49193;SDS011;35029;50.804;12.866;2024-01-25T09:25:06;20.33;;;4.85;;
49193;SDS011;35029;50.804;12.866;2024-01-25T09:27:32;15.10;;;2.88;;
49193;SDS011;35029;50.804;12.866;2024-01-25T09:30:00;18.75;;;3.30;;
49193;SDS011;35029;50.804;12.866;2024-01-25T09:32:25;17.63;;;3.40;;
49193;SDS011;35029;50.804;12.866;2024-01-25T09:34:51;19.02;;;2.97;;
49193;SDS011;35029;50.804;12.866;2024-01-25T09:37:17;16.88;;;3.47;;
49193;SDS011;35029;50.804;12.866;2024-01-25T09:39:44;12.70;;;3.13;;
49193;SDS011;35029;50.804;12.866;2024-01-25T09:42:10;15.80;;;3.13;;
49193;SDS011;35029;50.804;12.866;2024-01-25T09:44:37;15.73;;;3.75;;
49193;SDS011;35029;50.804;12.866;2024-01-25T09:47:03;16.20;;;3.75;;
49193;SDS011;35029;50.804;12.866;2024-01-25T09:49:33;22.15;;;3.05;;
49193;SDS011;35029;50.804;12.866;2024-01-25T09:51:59;15.68;;;3.83;;
49193;SDS011;35029;50.804;12.866;2024-01-25T09:54:30;12.23;;;3.17;;
49193;SDS011;35029;50.804;12.866;2024-01-25T09:56:59;15.27;;;3.25;;
49193;SDS011;35029;50.804;12.866;2024-01-25T09:59:25;15.85;;;3.42;;
49193;SDS011;35029;50.804;12.866;2024-01-25T10:01:52;17.90;;;3.50;;
49193;SDS011;35029;50.804;12.866;2024-01-25T10:04:18;10.65;;;2.83;;
49193;SDS011;35029;50.804;12.866;2024-01-25T10:06:47;14.55;;;2.20;;
49193;SDS011;35029;50.804;12.866;2024-01-25T10:09:13;20.98;;;3.40;;
49193;SDS011;35029;50.804;12.866;2024-01-25T10:11:39;14.43;;;2.85;;
49193;SDS011;35029;50.804;12.866;2024-01-25T10:14:05;16.40;;;3.28;;
49193;SDS011;35029;50.804;12.866;2024-01-25T10:16:31;16.77;;;3.22;;
49193;SDS011;35029;50.804;12.866;2024-01-25T10:18:57;15.40;;;3.75;;
49193;SDS011;35029;50.804;12.866;2024-01-25T10:21:23;16.75;;;3.55;;
49193;SDS011;35029;50.804;12.866;2024-01-25T10:23:49;17.10;;;4.30;;
49193;SDS011;35029;50.804;12.866;2024-01-25T10:26:16;6.07;;;2.22;;
49193;SDS011;35029;50.804;12.866;2024-01-25T10:28:42;9.23;;;2.55;;
49193;SDS011;35029;50.804;12.866;2024-01-25T10:31:08;8.18;;;2.72;;
49193;SDS011;35029;50.804;12.866;2024-01-25T10:33:34;11.85;;;2.97;;
49193;SDS011;35029;50.804;12.866;2024-01-25T10:36:02;13.35;;;2.88;;
49193;SDS011;35029;50.804;12.866;2024-01-25T10:38:33;18.13;;;3.70;;
49193;SDS011;35029;50.804;12.866;2024-01-25T10:41:03;14.20;;;3.05;;
49193;SDS011;35029;50.804;12.866;2024-01-25T10:43:30;12.45;;;4.10;;
49193;SDS011;35029;50.804;12.866;2024-01-25T10:45:57;14.25;;;2.97;;
49193;SDS011;35029;50.804;12.866;2024-01-25T10:48:27;12.13;;;3.22;;
49193;SDS011;35029;50.804;12.866;2024-01-25T10:50:53;11.57;;;2.28;;
49193;SDS011;35029;50.804;12.866;2024-01-25T10:53:20;12.45;;;3.47;;
49193;SDS011;35029;50.804;12.866;2024-01-25T10:55:47;14.05;;;2.58;;
49193;SDS011;35029;50.804;12.866;2024-01-25T10:58:13;13.48;;;2.45;;
49193;SDS011;35029;50.804;12.866;2024-01-25T11:00:39;12.85;;;3.13;;
49193;SDS011;35029;50.804;12.866;2024-01-25T11:03:05;12.43;;;2.20;;
49193;SDS011;35029;50.804;12.866;2024-01-25T11:05:31;10.43;;;2.80;;
49193;SDS011;35029;50.804;12.866;2024-01-25T11:07:57;17.65;;;3.85;;
49193;SDS011;35029;50.804;12.866;2024-01-25T11:10:27;12.43;;;3.13;;
49193;SDS011;35029;50.804;12.866;2024-01-25T11:13:00;13.10;;;2.88;;
49193;SDS011;35029;50.804;12.866;2024-01-25T11:15:36;12.98;;;2.70;;
49193;SDS011;35029;50.804;12.866;2024-01-25T11:18:04;13.68;;;2.92;;
49193;SDS011;35029;50.804;12.866;2024-01-25T11:20:35;10.10;;;2.47;;
49193;SDS011;35029;50.804;12.866;2024-01-25T11:23:02;11.23;;;2.70;;
49193;SDS011;35029;50.804;12.866;2024-01-25T11:25:33;13.80;;;2.83;;
49193;SDS011;35029;50.804;12.866;2024-01-25T11:28:04;11.40;;;2.33;;
49193;SDS011;35029;50.804;12.866;2024-01-25T11:30:36;12.68;;;2.47;;
49193;SDS011;35029;50.804;12.866;2024-01-25T11:33:06;11.25;;;3.22;;
49193;SDS011;35029;50.804;12.866;2024-01-25T11:35:33;11.55;;;3.08;;
49193;SDS011;35029;50.804;12.866;2024-01-25T11:37:59;18.08;;;3.15;;
49193;SDS011;35029;50.804;12.866;2024-01-25T11:40:25;11.43;;;2.47;;
49193;SDS011;35029;50.804;12.866;2024-01-25T11:42:58;9.43;;;2.80;;
49193;SDS011;35029;50.804;12.866;2024-01-25T11:45:24;13.80;;;2.92;;
49193;SDS011;35029;50.804;12.866;2024-01-25T11:47:53;11.45;;;2.85;;
49193;SDS011;35029;50.804;12.866;2024-01-25T11:50:18;6.88;;;1.85;;
49193;SDS011;35029;50.804;12.866;2024-01-25T11:52:44;15.77;;;3.08;;
49193;SDS011;35029;50.804;12.866;2024-01-25T11:55:10;12.57;;;2.70;;
49193;SDS011;35029;50.804;12.866;2024-01-25T11:57:40;13.75;;;2.72;;
49193;SDS011;35029;50.804;12.866;2024-01-25T12:00:07;11.02;;;1.95;;
49193;SDS011;35029;50.804;12.866;2024-01-25T12:02:36;11.05;;;2.70;;
49193;SDS011;35029;50.804;12.866;2024-01-25T12:05:02;7.97;;;2.25;;
49193;SDS011;35029;50.804;12.866;2024-01-25T12:07:32;10.45;;;2.53;;
49193;SDS011;35029;50.804;12.866;2024-01-25T12:12:26;13.13;;;2.65;;
49193;SDS011;35029;50.804;12.866;2024-01-25T12:15:00;10.35;;;2.47;;
49193;SDS011;35029;50.804;12.866;2024-01-25T12:17:30;12.07;;;2.20;;
49193;SDS011;35029;50.804;12.866;2024-01-25T12:19:56;11.52;;;2.95;;
49193;SDS011;35029;50.804;12.866;2024-01-25T12:22:22;12.30;;;2.47;;
49193;SDS011;35029;50.804;12.866;2024-01-25T12:24:50;14.98;;;3.20;;
49193;SDS011;35029;50.804;12.866;2024-01-25T12:27:20;9.35;;;3.15;;
49193;SDS011;35029;50.804;12.866;2024-01-25T12:29:53;14.27;;;2.83;;
49193;SDS011;35029;50.804;12.866;2024-01-25T12:32:22;11.65;;;2.50;;
49193;SDS011;35029;50.804;12.866;2024-01-25T12:34:58;8.63;;;2.00;;
49193;SDS011;35029;50.804;12.866;2024-01-25T12:37:26;19.40;;;2.05;;
49193;SDS011;35029;50.804;12.866;2024-01-25T12:39:52;10.00;;;2.28;;
49193;SDS011;35029;50.804;12.866;2024-01-25T12:42:19;12.77;;;2.60;;
49193;SDS011;35029;50.804;12.866;2024-01-25T12:44:46;8.52;;;2.03;;
49193;SDS011;35029;50.804;12.866;2024-01-25T12:47:12;7.50;;;1.95;;
49193;SDS011;35029;50.804;12.866;2024-01-25T12:49:41;11.40;;;2.47;;
49193;SDS011;35029;50.804;12.866;2024-01-25T12:52:12;18.27;;;3.08;;
49193;SDS011;35029;50.804;12.866;2024-01-25T12:54:39;14.27;;;3.08;;
49193;SDS011;35029;50.804;12.866;2024-01-25T12:57:05;11.98;;;2.67;;
49193;SDS011;35029;50.804;12.866;2024-01-25T12:59:32;12.05;;;2.72;;
49193;SDS011;35029;50.804;12.866;2024-01-25T13:01:58;11.43;;;2.70;;
49193;SDS011;35029;50.804;12.866;2024-01-25T13:04:24;12.30;;;2.10;;
49193;SDS011;35029;50.804;12.866;2024-01-25T13:06:51;10.43;;;2.03;;
49193;SDS011;35029;50.804;12.866;2024-01-25T13:09:18;11.85;;;2.80;;
49193;SDS011;35029;50.804;12.866;2024-01-25T13:11:43;13.70;;;2.42;;
49193;SDS011;35029;50.804;12.866;2024-01-25T13:14:09;12.98;;;2.58;;
49193;SDS011;35029;50.804;12.866;2024-01-25T13:16:35;8.85;;;2.35;;
49193;SDS011;35029;50.804;12.866;2024-01-25T13:19:00;8.25;;;1.73;;
49193;SDS011;35029;50.804;12.866;2024-01-25T13:21:26;14.10;;;2.45;;
49193;SDS011;35029;50.804;12.866;2024-01-25T13:23:51;6.10;;;1.95;;
49193;SDS011;35029;50.804;12.866;2024-01-25T13:26:17;9.60;;;2.40;;
49193;SDS011;35029;50.804;12.866;2024-01-25T13:28:42;13.07;;;2.60;;
49193;SDS011;35029;50.804;12.866;2024-01-25T13:31:08;7.43;;;2.55;;
49193;SDS011;35029;50.804;12.866;2024-01-25T13:33:34;15.57;;;3.15;;
49193;SDS011;35029;50.804;12.866;2024-01-25T13:35:59;11.48;;;2.80;;
49193;SDS011;35029;50.804;12.866;2024-01-25T13:38:25;13.95;;;2.15;;
49193;SDS011;35029;50.804;12.866;2024-01-25T13:40:50;14.38;;;2.75;;
49193;SDS011;35029;50.804;12.866;2024-01-25T13:43:16;11.63;;;2.25;;
49193;SDS011;35029;50.804;12.866;2024-01-25T13:45:42;11.32;;;3.25;;
49193;SDS011;35029;50.804;12.866;2024-01-25T13:48:07;13.07;;;3.03;;
49193;SDS011;35029;50.804;12.866;2024-01-25T13:50:33;14.90;;;3.13;;
49193;SDS011;35029;50.804;12.866;2024-01-25T13:52:59;16.08;;;2.47;;
49193;SDS011;35029;50.804;12.866;2024-01-25T13:55:24;13.63;;;2.95;;
49193;SDS011;35029;50.804;12.866;2024-01-25T13:57:50;16.05;;;2.90;;
49193;SDS011;35029;50.804;12.866;2024-01-25T14:00:16;10.88;;;2.42;;
49193;SDS011;35029;50.804;12.866;2024-01-25T14:02:42;13.77;;;2.78;;
49193;SDS011;35029;50.804;12.866;2024-01-25T14:05:10;10.13;;;2.60;;
49193;SDS011;35029;50.804;12.866;2024-01-25T14:07:36;12.75;;;3.60;;
49193;SDS011;35029;50.804;12.866;2024-01-25T14:10:02;13.30;;;3.67;;
49193;SDS011;35029;50.804;12.866;2024-01-25T14:12:28;14.85;;;3.47;;
49193;SDS011;35029;50.804;12.866;2024-01-25T14:14:54;15.45;;;3.10;;
49193;SDS011;35029;50.804;12.866;2024-01-25T14:17:20;9.30;;;2.75;;